No.2 Fuji Maru — JD3721 — position and weather

sailwx.info

Track history (hours):
 
Tides and Currents Weather Stations Pressure Air Temp Water Temp Dewpoint Dewpoint Depression Visibility Wind Speed Wind Dir Waves Ship Positions

No.2 Fuji Maru

Last reported at 2018-Feb-17 23:56 UTC. Time now 2018-Feb-21 22:58 UTC.
Position N 35°30' E 139°44'.

Length 33 m; draft 3 m.

Type: Tug. MMSI: 431005657.

Date/timePositionNaut miles runAvg speedWind from/ knotsBaromVisibWave heightAir tempDewpointWater temp
2018-Feb-17 23:56N 35°30' E 139°44'3 6.2
2018-Feb-17 23:30N 35°29' E 139°47'1 2.6
2018-Feb-17 23:00N 35°30' E 139°46'2 3.8
2018-Feb-17 22:30N 35°30' E 139°44'0 0.0
2018-Feb-16 00:53N 35°30' E 139°44'3 7.3
2018-Feb-16 00:30N 35°30' E 139°47'1 1.2
2018-Feb-16 00:00N 35°30' E 139°47'2 4.8
2018-Feb-15 23:30N 35°30' E 139°44'0 0.0
2018-Feb-14 01:05N 35°30' E 139°44'0 0.0
2018-Feb-14 01:00N 35°30' E 139°44'3 5.2
2018-Feb-14 00:30N 35°29' E 139°47'1 2.6
2018-Feb-14 00:00N 35°30' E 139°47'2 4.6
2018-Feb-13 23:31N 35°30' E 139°44'0 0.0
2018-Feb-11 23:58N 35°30' E 139°44'3 5.8
2018-Feb-11 23:30N 35°29' E 139°47'4 8.1
2018-Feb-11 23:01N 35°29' E 139°42'2 4.4
2018-Feb-11 22:30N 35°30' E 139°44'0 0.0
2018-Feb-09 23:46N 35°30' E 139°44'2 7.1
2018-Feb-09 23:31N 35°30' E 139°46'1 1.7
2018-Feb-09 23:00N 35°30' E 139°47'310.4
2018-Feb-09 22:46N 35°30' E 139°44'0 1.2
2018-Feb-09 22:30N 35°30' E 139°44'0 0.0
2018-Feb-08 01:08N 35°30' E 139°44'1 4.0
2018-Feb-08 01:00N 35°30' E 139°44'2 4.3
2018-Feb-08 00:30N 35°28' E 139°46'2 4.2
2018-Feb-08 00:00N 35°30' E 139°46'  
Track history (hours):
 
Tides and Currents Weather Stations Pressure Air Temp Water Temp Dewpoint Dewpoint Depression Visibility Wind Speed Wind Dir Waves Ship Positions

No.2 Fuji Maru

Last reported at 2018-Feb-17 23:56 UTC. Time now 2018-Feb-21 22:58 UTC.
Position N 35°30' E 139°44'.

Length 33 m; draft 3 m.

Type: Tug. MMSI: 431005657.

Date/timePositionNaut miles runAvg speedWind from/ knotsBaromVisibWave heightAir tempDewpointWater temp
2018-Feb-17 23:56N 35°30' E 139°44'3 6.2
2018-Feb-17 23:30N 35°29' E 139°47'1 2.6
2018-Feb-17 23:00N 35°30' E 139°46'2 3.8
2018-Feb-17 22:30N 35°30' E 139°44'0 0.0
2018-Feb-16 00:53N 35°30' E 139°44'3 7.3
2018-Feb-16 00:30N 35°30' E 139°47'1 1.2
2018-Feb-16 00:00N 35°30' E 139°47'2 4.8
2018-Feb-15 23:30N 35°30' E 139°44'0 0.0
2018-Feb-14 01:05N 35°30' E 139°44'0 0.0
2018-Feb-14 01:00N 35°30' E 139°44'3 5.2
2018-Feb-14 00:30N 35°29' E 139°47'1 2.6
2018-Feb-14 00:00N 35°30' E 139°47'2 4.6
2018-Feb-13 23:31N 35°30' E 139°44'0 0.0
2018-Feb-11 23:58N 35°30' E 139°44'3 5.8
2018-Feb-11 23:30N 35°29' E 139°47'4 8.1
2018-Feb-11 23:01N 35°29' E 139°42'2 4.4
2018-Feb-11 22:30N 35°30' E 139°44'0 0.0
2018-Feb-09 23:46N 35°30' E 139°44'2 7.1
2018-Feb-09 23:31N 35°30' E 139°46'1 1.7
2018-Feb-09 23:00N 35°30' E 139°47'310.4
2018-Feb-09 22:46N 35°30' E 139°44'0 1.2
2018-Feb-09 22:30N 35°30' E 139°44'0 0.0
2018-Feb-08 01:08N 35°30' E 139°44'1 4.0
2018-Feb-08 01:00N 35°30' E 139°44'2 4.3
2018-Feb-08 00:30N 35°28' E 139°46'2 4.2
2018-Feb-08 00:00N 35°30' E 139°46'  

Dump ship's entire track history